Startpagina
METAR-TAF:

METAR-TAF

Vliegvelden :

Sleeswijk-Jagel, Duitsland

breedte: 54-28N, lengte: 009-31E, hoogte: 22 m

Actueel weer

Dit bericht is 15 minuten geleden gemaakt, om 21:20 UTC
Wind 2 kt uit het noordoosten
Temperatuur 16°C
Vochtigheid 68%
Druk 1012 hPa
Zicht: 5000 m

METAR: ETNS 022120Z AUTO 04002KT 5000 // ////// 16/10 Q1012 ///

Tijdstip: 23:35 (21:35 UTC)

Verwachting

Dit bericht is 8 uur en het 30 minuten geleden gemaakt, om 13:05 UTC
Verwachting geldig van 02 om 14 UTC tot 02 om 23 UTC
Wind 5 kt uit het noordwesten
Zicht 10 km of meer
Weinig wolken op 7000 ft
Verspreide wolken op 25000 ft

TAF: ETNS 021305Z 0214/0223 32005KT 9999 NSW FEW070 SCT250 BY ETGL

Waarnemingen en weersverwachtingen van meer dan 4000 vliegvelden (METAR en TAF).

De beschikbare stations zijn de gele en rode punten op de kaart.

Ga met uw muis naar het station om de naam te zien.

Klik dan om waarnemingen en weersverwachtingen te zien.

kaart wijzigen: klik op de groene knoppen met een zwart kruis om in te zoomen, op de groene knop met een streepje om uit te zoomen of op de groene pijlen voor aangrenzende kaarten.


METAR-TAF: